Time,TemperatureF,DewpointF,PressureIn,WindDirection,WindDirectionDegrees,WindSpeedMPH,WindSpeedGustMPH,Humidity,HourlyPrecipIn,Conditions,Clouds,dailyrainin,SoftwareType,DateUTC
2013-03-07 00:00:00,33.4,23.3,29.05,NNW,338,1.1,0.0,66,0.00,,SKC,0.01,WeatherDisplay:10.37,2013-03-07 05:00:00,
2013-03-07 00:01:00,33.4,23.3,29.05,NE,45,1.1,0.0,66,0.00,RA,SKC,0.00,WeatherDisplay:10.37,2013-03-07 05:01:00,
2013-03-07 00:06:00,33.3,23.1,29.05,NE,45,2.3,2.3,66,0.00,RA,SKC,0.00,WeatherDisplay:10.37,2013-03-07 05:06:00,
2013-03-07 00:11:00,33.1,23.3,29.05,North,0,2.3,0.0,67,0.00,,SKC,0.00,WeatherDisplay:10.37,2013-03-07 05:11:00,
2013-03-07 00:16:00,32.9,23.5,29.05,North,0,1.1,0.0,68,0.00,,SKC,0.00,WeatherDisplay:10.37,2013-03-07 05:16:00,
2013-03-07 00:21:00,32.7,23.3,29.05,NW,315,1.1,0.0,68,0.00,,SKC,0.00,WeatherDisplay:10.37,2013-03-07 05:21:00,
2013-03-07 00:26:00,32.4,23.3,29.05,North,0,2.3,0.0,69,0.00,,SKC,0.00,WeatherDisplay:10.37,2013-03-07 05:26:00,
2013-03-07 00:31:00,32.4,23.3,29.05,NE,45,2.3,2.3,69,0.00,,SKC,0.00,WeatherDisplay:10.37,2013-03-07 05:31:00,
2013-03-07 00:36:00,32.4,23.3,29.05,South,180,2.3,0.0,69,0.00,,SKC,0.00,WeatherDisplay:10.37,2013-03-07 05:36:00,
2013-03-07 00:41:00,32.2,23.1,29.05,North,0,1.1,0.0,69,0.00,,SKC,0.00,WeatherDisplay:10.37,2013-03-07 05:41:00,
2013-03-07 00:46:00,32.4,23.3,29.06,South,180,1.1,0.0,69,0.00,,SKC,0.00,WeatherDisplay:10.37,2013-03-07 05:46:00,
2013-03-07 00:51:00,32.4,23.3,29.06,NE,45,1.1,0.0,69,0.00,,SKC,0.00,WeatherDisplay:10.37,2013-03-07 05:51:00,
2013-03-07 00:56:00,32.4,23.3,29.06,West,270,1.1,0.0,69,0.00,,SKC,0.00,WeatherDisplay:10.37,2013-03-07 05:56:00,
2013-03-07 01:01:00,32.2,23.1,29.06,West,270,0.0,0.0,69,0.00,,SKC,0.00,WeatherDisplay:10.37,2013-03-07 06:01:00,
2013-03-07 01:06:00,32.2,23.1,29.06,West,270,0.0,0.0,69,0.00,,SKC,0.00,WeatherDisplay:10.37,2013-03-07 06:06:00,
2013-03-07 01:11:00,32.0,23.0,29.06,NW,315,1.1,0.0,69,0.00,,SKC,0.00,WeatherDisplay:10.37,2013-03-07 06:11:00,
2013-03-07 01:17:00,31.8,22.8,29.06,North,0,1.1,0.0,69,0.00,,SKC,0.00,WeatherDisplay:10.37,2013-03-07 06:17:00,
2013-03-07 01:22:00,32.0,23.3,29.06,North,0,1.1,0.0,70,0.00,,SKC,0.00,WeatherDisplay:10.37,2013-03-07 06:22:00,
2013-03-07 01:27:00,32.4,23.7,29.06,North,0,2.3,2.3,70,0.00,,SKC,0.00,WeatherDisplay:10.37,2013-03-07 06:27:00,
2013-03-07 01:32:00,32.5,23.8,29.07,North,0,1.1,0.0,70,0.00,,SKC,0.00,WeatherDisplay:10.37,2013-03-07 06:32:00,
2013-03-07 01:37:00,32.5,23.5,29.07,NW,315,1.1,0.0,69,0.00,,SKC,0.00,WeatherDisplay:10.37,2013-03-07 06:37:00,
2013-03-07 01:42:00,32.4,23.3,29.07,North,0,1.1,0.0,69,0.00,,SKC,0.00,WeatherDisplay:10.37,2013-03-07 06:42:00,
2013-03-07 01:47:00,32.2,23.5,29.07,North,0,1.1,0.0,70,0.00,,SKC,0.00,WeatherDisplay:10.37,2013-03-07 06:47:00,
2013-03-07 01:52:00,32.0,23.3,29.07,NW,315,1.1,0.0,70,0.00,,SKC,0.00,WeatherDisplay:10.37,2013-03-07 06:52:00,
2013-03-07 01:57:00,31.8,23.1,29.07,NW,315,1.1,0.0,70,0.00,,SKC,0.00,WeatherDisplay:10.37,2013-03-07 06:57:00,
2013-03-07 02:02:00,31.8,23.5,29.07,West,270,1.1,0.0,71,0.00,,SKC,0.00,WeatherDisplay:10.37,2013-03-07 07:02:00,
2013-03-07 02:07:00,32.2,23.8,29.07,North,0,1.1,0.0,71,0.00,,SKC,0.00,WeatherDisplay:10.37,2013-03-07 07:07:00,
2013-03-07 02:12:00,32.4,24.0,29.07,North,0,0.0,0.0,71,0.00,,SKC,0.00,WeatherDisplay:10.37,2013-03-07 07:12:00,
2013-03-07 02:17:00,32.4,23.7,29.07,North,0,2.3,0.0,70,0.00,,SKC,0.00,WeatherDisplay:10.37,2013-03-07 07:17:00,
2013-03-07 02:22:00,32.4,23.7,29.06,North,0,1.1,0.0,70,0.00,,SKC,0.00,WeatherDisplay:10.37,2013-03-07 07:22:00,
2013-03-07 02:27:00,32.4,23.7,29.06,North,0,1.1,0.0,70,0.00,,SKC,0.00,WeatherDisplay:10.37,2013-03-07 07:27:00,
2013-03-07 02:32:00,32.4,23.7,29.05,North,0,1.1,0.0,70,0.00,,SKC,0.00,WeatherDisplay:10.37,2013-03-07 07:32:00,
2013-03-07 02:37:00,32.4,23.7,29.06,North,0,2.3,0.0,70,0.00,,SKC,0.00,WeatherDisplay:10.37,2013-03-07 07:37:00,
2013-03-07 02:42:00,32.2,23.5,29.06,NE,45,1.1,0.0,70,0.00,,SKC,0.00,WeatherDisplay:10.37,2013-03-07 07:42:00,
2013-03-07 02:47:00,32.2,23.5,29.05,NE,45,1.1,0.0,70,0.00,,SKC,0.00,WeatherDisplay:10.37,2013-03-07 07:47:00,
2013-03-07 02:52:00,32.2,23.5,29.05,North,0,1.1,0.0,70,0.00,,SKC,0.00,WeatherDisplay:10.37,2013-03-07 07:52:00,
2013-03-07 02:57:00,32.2,23.5,29.05,NE,45,1.1,0.0,70,0.00,,SKC,0.00,WeatherDisplay:10.37,2013-03-07 07:57:00,
2013-03-07 03:02:00,32.0,23.3,29.05,NE,45,1.1,0.0,70,0.00,,SKC,0.00,WeatherDisplay:10.37,2013-03-07 08:02:00,
2013-03-07 03:07:00,32.0,23.3,29.04,NE,45,1.1,0.0,70,0.00,,SKC,0.00,WeatherDisplay:10.37,2013-03-07 08:07:00,
2013-03-07 03:12:00,31.6,23.0,29.05,NE,45,1.1,0.0,70,0.00,,SKC,0.00,WeatherDisplay:10.37,2013-03-07 08:12:00,
2013-03-07 03:17:00,31.5,23.1,29.06,South,180,1.1,0.0,71,0.00,,SKC,0.00,WeatherDisplay:10.37,2013-03-07 08:17:00,
2013-03-07 03:22:00,30.7,23.1,29.05,East,90,1.1,0.0,73,0.00,,SKC,0.00,WeatherDisplay:10.37,2013-03-07 08:22:00,
2013-03-07 03:27:00,30.0,22.4,29.05,SE,135,1.1,0.0,73,0.00,,SKC,0.00,WeatherDisplay:10.37,2013-03-07 08:27:00,
2013-03-07 03:32:00,29.5,22.5,29.05,North,0,0.0,0.0,75,0.00,,SKC,0.00,WeatherDisplay:10.37,2013-03-07 08:32:00,
2013-03-07 03:37:00,29.1,22.5,29.06,North,0,1.1,0.0,76,0.00,,SKC,0.00,WeatherDisplay:10.37,2013-03-07 08:37:00,
2013-03-07 03:42:00,29.1,22.8,29.06,North,0,1.1,0.0,77,0.00,,SKC,0.00,WeatherDisplay:10.37,2013-03-07 08:42:00,
2013-03-07 03:47:00,29.5,23.2,29.07,NW,315,1.1,0.0,77,0.00,,SKC,0.00,WeatherDisplay:10.37,2013-03-07 08:47:00,
2013-03-07 03:52:00,29.5,23.2,29.07,South,180,1.1,0.0,77,0.00,,SKC,0.00,WeatherDisplay:10.37,2013-03-07 08:52:00,
2013-03-07 03:57:00,29.3,23.0,29.08,NE,45,1.1,0.0,77,0.00,,SKC,0.00,WeatherDisplay:10.37,2013-03-07 08:57:00,
2013-03-07 04:02:00,29.5,23.2,29.07,North,0,1.1,0.0,77,0.00,,SKC,0.00,WeatherDisplay:10.37,2013-03-07 09:02:00,
2013-03-07 04:07:00,29.3,23.0,29.07,NW,315,0.0,0.0,77,0.00,,SKC,0.00,WeatherDisplay:10.37,2013-03-07 09:07:00,
2013-03-07 04:12:00,29.1,22.8,29.07,NW,315,0.0,0.0,77,0.00,,SKC,0.00,WeatherDisplay:10.37,2013-03-07 09:12:00,
2013-03-07 04:17:00,28.8,22.5,29.07,East,90,1.1,0.0,77,0.00,,SKC,0.00,WeatherDisplay:10.37,2013-03-07 09:17:00,
2013-03-07 04:22:00,28.4,22.1,29.08,North,0,1.1,0.0,77,0.00,,SKC,0.00,WeatherDisplay:10.37,2013-03-07 09:22:00,
2013-03-07 04:27:00,28.2,21.9,29.08,North,0,0.0,0.0,77,0.00,,SKC,0.00,WeatherDisplay:10.37,2013-03-07 09:27:00,
2013-03-07 04:32:00,28.0,22.1,29.08,NW,315,1.1,0.0,78,0.00,,SKC,0.00,WeatherDisplay:10.37,2013-03-07 09:32:00,
2013-03-07 04:37:00,27.9,21.9,29.08,South,180,0.0,0.0,78,0.00,,SKC,0.00,WeatherDisplay:10.37,2013-03-07 09:37:00,
2013-03-07 04:42:00,27.9,22.5,29.08,South,180,1.1,0.0,80,0.00,,SKC,0.00,WeatherDisplay:10.37,2013-03-07 09:42:00,
2013-03-07 04:47:00,27.9,22.5,29.08,NW,315,1.1,0.0,80,0.00,,SKC,0.00,WeatherDisplay:10.37,2013-03-07 09:47:00,
2013-03-07 04:52:00,27.9,22.5,29.09,NW,315,1.1,0.0,80,0.00,,SKC,0.00,WeatherDisplay:10.37,2013-03-07 09:52:00,
2013-03-07 04:57:00,27.9,22.5,29.09,North,0,0.0,0.0,80,0.00,,SKC,0.00,WeatherDisplay:10.37,2013-03-07 09:57:00,
2013-03-07 05:02:00,27.9,22.5,29.09,North,0,1.1,0.0,80,0.00,,SKC,0.00,WeatherDisplay:10.37,2013-03-07 10:02:00,
2013-03-07 05:07:00,28.2,23.1,29.09,South,180,1.1,0.0,81,0.00,,SKC,0.00,WeatherDisplay:10.37,2013-03-07 10:07:00,
2013-03-07 05:12:00,27.9,23.1,29.09,North,0,1.1,0.0,82,0.00,,SKC,0.00,WeatherDisplay:10.37,2013-03-07 10:12:00,
2013-03-07 05:17:00,27.5,21.5,29.09,North,0,1.1,0.0,78,0.00,,SKC,0.00,WeatherDisplay:10.37,2013-03-07 10:17:00,
2013-03-07 05:22:00,27.5,21.5,29.09,NE,45,2.3,2.3,78,0.00,,SKC,0.00,WeatherDisplay:10.37,2013-03-07 10:22:00,
2013-03-07 05:27:00,27.5,21.5,29.10,West,270,1.1,0.0,78,0.00,,SKC,0.00,WeatherDisplay:10.37,2013-03-07 10:27:00,
2013-03-07 05:33:00,27.3,21.7,29.10,South,180,0.0,0.0,79,0.00,,SKC,0.00,WeatherDisplay:10.37,2013-03-07 10:33:00,
2013-03-07 05:38:00,27.0,21.0,29.10,North,0,1.1,0.0,78,0.00,,SKC,0.00,WeatherDisplay:10.37,2013-03-07 10:38:00,
2013-03-07 05:43:00,26.8,20.8,29.10,South,180,1.1,0.0,78,0.00,,SKC,0.00,WeatherDisplay:10.37,2013-03-07 10:43:00,
2013-03-07 05:48:00,26.8,21.1,29.10,NW,315,1.1,0.0,79,0.00,,SKC,0.00,WeatherDisplay:10.37,2013-03-07 10:48:00,
2013-03-07 05:53:00,26.6,21.0,29.10,NE,45,1.1,0.0,79,0.00,,SKC,0.00,WeatherDisplay:10.37,2013-03-07 10:53:00,
2013-03-07 05:58:00,26.8,21.4,29.11,SE,135,1.1,0.0,80,0.00,,SKC,0.00,WeatherDisplay:10.37,2013-03-07 10:58:00,
2013-03-07 06:03:00,27.0,21.9,29.11,North,0,2.3,0.0,81,0.00,,SKC,0.00,WeatherDisplay:10.37,2013-03-07 11:03:00,
2013-03-07 06:08:00,27.1,22.1,29.11,North,0,1.1,0.0,81,0.00,,SKC,0.00,WeatherDisplay:10.37,2013-03-07 11:08:00,
2013-03-07 06:13:00,27.1,22.1,29.11,South,180,1.1,0.0,81,0.00,,SKC,0.00,WeatherDisplay:10.37,2013-03-07 11:13:00,
2013-03-07 06:18:00,27.0,21.9,29.11,North,0,1.1,0.0,81,0.00,,SKC,0.00,WeatherDisplay:10.37,2013-03-07 11:18:00,
2013-03-07 06:23:00,26.8,21.7,29.12,SW,225,1.1,0.0,81,0.00,,SKC,0.00,WeatherDisplay:10.37,2013-03-07 11:23:00,
2013-03-07 06:28:00,26.6,21.6,29.11,South,180,1.1,0.0,81,0.00,,SKC,0.00,WeatherDisplay:10.37,2013-03-07 11:28:00,
2013-03-07 06:33:00,26.6,21.6,29.11,North,0,1.1,0.0,81,0.00,,SKC,0.00,WeatherDisplay:10.37,2013-03-07 11:33:00,
2013-03-07 06:38:00,26.8,21.7,29.11,North,0,1.1,0.0,81,0.00,,SKC,0.00,WeatherDisplay:10.37,2013-03-07 11:38:00,
2013-03-07 06:43:00,26.8,21.7,29.12,North,0,2.3,0.0,81,0.00,,SKC,0.00,WeatherDisplay:10.37,2013-03-07 11:43:00,
2013-03-07 06:48:00,27.1,22.4,29.12,North,0,1.1,0.0,82,0.00,,SKC,0.00,WeatherDisplay:10.37,2013-03-07 11:48:00,
2013-03-07 06:53:00,27.5,22.4,29.13,NW,315,1.1,0.0,81,0.00,,SKC,0.00,WeatherDisplay:10.37,2013-03-07 11:53:00,
2013-03-07 06:58:00,27.9,23.9,29.12,North,0,1.1,0.0,85,0.00,,SKC,0.00,WeatherDisplay:10.37,2013-03-07 11:58:00,
2013-03-07 07:03:00,28.6,24.6,29.12,NW,315,1.1,0.0,85,0.00,,SKC,0.00,WeatherDisplay:10.37,2013-03-07 12:03:00,
2013-03-07 07:08:00,28.6,24.1,29.12,North,0,1.1,0.0,83,0.00,,SKC,0.00,WeatherDisplay:10.37,2013-03-07 12:08:00,
2013-03-07 07:13:00,28.4,23.6,29.12,North,0,1.1,0.0,82,0.00,,SKC,0.00,WeatherDisplay:10.37,2013-03-07 12:13:00,
2013-03-07 07:18:00,28.6,23.8,29.12,NW,315,1.1,0.0,82,0.00,,SKC,0.00,WeatherDisplay:10.37,2013-03-07 12:18:00,
2013-03-07 07:23:00,29.1,24.3,29.12,North,0,1.1,0.0,82,0.00,,SKC,0.00,WeatherDisplay:10.37,2013-03-07 12:23:00,
2013-03-07 07:28:00,30.0,24.6,29.12,South,180,1.1,0.0,80,0.00,,SKC,0.00,WeatherDisplay:10.37,2013-03-07 12:28:00,
2013-03-07 07:33:00,31.8,25.7,29.12,South,180,1.1,0.0,78,0.00,,SKC,0.00,WeatherDisplay:10.37,2013-03-07 12:33:00,
2013-03-07 07:38:00,33.1,26.3,29.12,North,0,1.1,0.0,76,0.00,,SKC,0.00,WeatherDisplay:10.37,2013-03-07 12:38:00,
2013-03-07 07:43:00,33.8,25.7,29.12,South,180,0.0,0.0,72,0.00,,SKC,0.00,WeatherDisplay:10.37,2013-03-07 12:43:00,
2013-03-07 07:48:00,35.1,25.6,29.13,North,0,0.0,0.0,68,0.00,,SKC,0.00,WeatherDisplay:10.37,2013-03-07 12:48:00,
2013-03-07 07:53:00,35.4,25.2,29.13,SW,225,0.0,0.0,66,0.00,,SKC,0.00,WeatherDisplay:10.37,2013-03-07 12:53:00,
2013-03-07 07:58:00,36.9,27.6,29.13,SW,225,0.0,0.0,69,0.00,,SKC,0.00,WeatherDisplay:10.37,2013-03-07 12:58:00,
2013-03-07 08:03:00,38.3,28.3,29.13,SE,135,0.0,0.0,67,0.00,,SKC,0.00,WeatherDisplay:10.37,2013-03-07 13:03:00,
2013-03-07 08:08:00,38.8,27.7,29.13,SW,225,0.0,0.0,64,0.00,,SKC,0.00,WeatherDisplay:10.37,2013-03-07 13:08:00,
2013-03-07 08:13:00,39.6,28.8,29.13,South,180,0.0,0.0,65,0.00,,SKC,0.00,WeatherDisplay:10.37,2013-03-07 13:13:00,
2013-03-07 08:18:00,40.5,28.1,29.13,NW,315,0.0,0.0,61,0.00,,SKC,0.00,WeatherDisplay:10.37,2013-03-07 13:18:00,
2013-03-07 08:23:00,41.2,28.7,29.13,North,0,0.0,0.0,61,0.00,,SKC,0.00,WeatherDisplay:10.37,2013-03-07 13:23:00,
2013-03-07 08:28:00,41.0,27.3,29.13,North,0,0.0,0.0,58,0.00,,SKC,0.00,WeatherDisplay:10.37,2013-03-07 13:28:00,
2013-03-07 08:33:00,43.0,27.5,29.13,South,180,0.0,0.0,54,0.00,,SKC,0.00,WeatherDisplay:10.37,2013-03-07 13:33:00,
2013-03-07 08:38:00,43.0,27.5,29.13,South,180,0.0,0.0,54,0.00,,SKC,0.00,WeatherDisplay:10.37,2013-03-07 13:38:00,
2013-03-07 08:43:00,43.2,27.6,29.13,SSE,158,0.0,0.0,54,0.00,,SKC,0.00,WeatherDisplay:10.37,2013-03-07 13:43:00,
2013-03-07 08:48:00,43.0,26.5,29.13,West,270,0.0,0.0,52,0.00,,SKC,0.00,WeatherDisplay:10.37,2013-03-07 13:48:00,
2013-03-07 08:53:00,44.4,26.9,29.14,NW,315,0.0,0.0,50,0.00,,SKC,0.00,WeatherDisplay:10.37,2013-03-07 13:53:00,
2013-03-07 08:58:00,43.9,26.4,29.13,NE,45,0.0,0.0,50,0.00,,SKC,0.00,WeatherDisplay:10.37,2013-03-07 13:58:00,
2013-03-07 09:04:00,44.8,27.3,29.12,North,0,0.0,0.0,50,0.00,,SKC,0.00,WeatherDisplay:10.37,2013-03-07 14:04:00,
2013-03-07 09:09:00,45.5,25.9,29.13,North,0,0.0,0.0,46,0.00,,SKC,0.00,WeatherDisplay:10.37,2013-03-07 14:09:00,
2013-03-07 09:14:00,46.2,26.6,29.13,North,0,0.0,0.0,46,0.00,,SKC,0.00,WeatherDisplay:10.37,2013-03-07 14:14:00,
2013-03-07 09:19:00,46.6,26.4,29.13,NE,45,0.0,0.0,45,0.00,,SKC,0.00,WeatherDisplay:10.37,2013-03-07 14:19:00,
2013-03-07 09:24:00,45.7,24.4,29.13,NW,315,0.0,0.0,43,0.00,,SKC,0.00,WeatherDisplay:10.37,2013-03-07 14:24:00,
2013-03-07 09:29:00,45.3,24.1,29.12,North,0,0.0,0.0,43,0.00,,SKC,0.00,WeatherDisplay:10.37,2013-03-07 14:29:00,
2013-03-07 09:34:00,44.4,23.8,29.12,North,0,0.0,0.0,44,0.00,,SKC,0.00,WeatherDisplay:10.37,2013-03-07 14:34:00,
2013-03-07 09:39:00,44.4,23.8,29.12,North,0,0.0,0.0,44,0.00,,SKC,0.00,WeatherDisplay:10.37,2013-03-07 14:39:00,
2013-03-07 09:44:00,44.4,23.8,29.12,East,90,0.0,0.0,44,0.00,,SKC,0.00,WeatherDisplay:10.37,2013-03-07 14:44:00,
2013-03-07 09:49:00,43.9,23.9,29.12,SW,225,0.0,0.0,45,0.00,,SKC,0.00,WeatherDisplay:10.37,2013-03-07 14:49:00,
2013-03-07 09:54:00,44.4,23.8,29.13,NE,45,0.0,0.0,44,0.00,,SKC,0.00,WeatherDisplay:10.37,2013-03-07 14:54:00,
2013-03-07 09:59:00,46.6,26.9,29.12,NW,315,0.0,0.0,46,0.00,,SKC,0.00,WeatherDisplay:10.37,2013-03-07 14:59:00,
2013-03-07 10:04:00,46.9,26.1,29.13,East,90,0.0,0.0,44,0.00,,SKC,0.00,WeatherDisplay:10.37,2013-03-07 15:04:00,
2013-03-07 10:09:00,45.3,23.5,29.12,North,0,0.0,0.0,42,0.00,,SKC,0.00,WeatherDisplay:10.37,2013-03-07 15:09:00,
2013-03-07 10:14:00,45.7,24.4,29.13,North,0,0.0,0.0,43,0.00,,SKC,0.00,WeatherDisplay:10.37,2013-03-07 15:14:00,
2013-03-07 10:19:00,45.9,25.2,29.12,North,0,0.0,0.0,44,0.00,,SKC,0.00,WeatherDisplay:10.37,2013-03-07 15:19:00,
2013-03-07 10:24:00,45.7,24.4,29.12,North,0,0.0,0.0,43,0.00,,SKC,0.00,WeatherDisplay:10.37,2013-03-07 15:24:00,
2013-03-07 10:30:00,46.8,26.5,29.12,North,0,0.0,0.0,45,0.00,,SKC,0.00,WeatherDisplay:10.37,2013-03-07 15:30:00,
2013-03-07 10:35:00,46.2,24.9,29.13,SW,225,0.0,0.0,43,0.00,,SKC,0.00,WeatherDisplay:10.37,2013-03-07 15:35:00,
2013-03-07 10:40:00,47.1,25.7,29.12,NE,45,0.0,0.0,43,0.00,,SKC,0.00,WeatherDisplay:10.37,2013-03-07 15:40:00,
2013-03-07 10:45:00,47.3,25.3,29.12,North,0,0.0,0.0,42,0.00,,SKC,0.00,WeatherDisplay:10.37,2013-03-07 15:45:00,
2013-03-07 10:50:00,47.7,23.9,29.12,South,180,0.0,0.0,39,0.00,,SKC,0.00,WeatherDisplay:10.37,2013-03-07 15:50:00,
2013-03-07 10:55:00,48.0,24.8,29.12,NE,45,0.0,0.0,40,0.00,,SKC,0.00,WeatherDisplay:10.37,2013-03-07 15:55:00,
2013-03-07 11:00:00,47.1,24.0,29.12,North,0,0.0,0.0,40,0.00,,SKC,0.00,WeatherDisplay:10.37,2013-03-07 16:00:00,
2013-03-07 11:05:00,46.4,23.4,29.12,South,180,0.0,0.0,40,0.00,,SKC,0.00,WeatherDisplay:10.37,2013-03-07 16:05:00,
2013-03-07 11:10:00,48.2,26.7,29.12,West,270,0.0,0.0,43,0.00,,SKC,0.00,WeatherDisplay:10.37,2013-03-07 16:10:00,
2013-03-07 11:15:00,49.5,26.1,29.11,SE,135,0.0,0.0,40,0.00,,SKC,0.00,WeatherDisplay:10.37,2013-03-07 16:15:00,
2013-03-07 11:20:00,49.8,25.2,29.12,SW,225,0.0,0.0,38,0.00,,SKC,0.00,WeatherDisplay:10.37,2013-03-07 16:20:00,
2013-03-07 11:25:00,50.2,25.5,29.11,East,90,0.0,0.0,38,0.00,,SKC,0.00,WeatherDisplay:10.37,2013-03-07 16:25:00,
2013-03-07 11:30:00,50.4,24.4,29.11,NW,315,0.0,0.0,36,0.00,,SKC,0.00,WeatherDisplay:10.37,2013-03-07 16:30:00,
2013-03-07 11:35:00,51.1,26.3,29.11,West,270,0.0,0.0,38,0.00,,SKC,0.00,WeatherDisplay:10.37,2013-03-07 16:35:00,
2013-03-07 11:40:00,52.3,27.4,29.11,West,278,0.0,0.0,38,0.00,,SKC,0.00,WeatherDisplay:10.37,2013-03-07 16:40:00,
2013-03-07 11:45:00,51.4,24.7,29.11,NE,45,0.0,0.0,35,0.00,,SKC,0.00,WeatherDisplay:10.37,2013-03-07 16:45:00,
2013-03-07 11:50:00,50.9,24.9,29.10,SSE,152,0.0,0.0,36,0.00,,SKC,0.00,WeatherDisplay:10.37,2013-03-07 16:50:00,
2013-03-07 11:55:00,49.8,25.2,29.10,SW,225,0.0,0.0,38,0.00,,SKC,0.00,WeatherDisplay:10.37,2013-03-07 16:55:00,
2013-03-07 12:00:00,49.9,25.9,29.10,South,179,0.0,0.0,39,0.00,,SKC,0.00,WeatherDisplay:10.37,2013-03-07 17:00:00,
2013-03-07 12:05:00,49.1,25.8,29.10,North,0,0.0,0.0,40,0.00,,SKC,0.00,WeatherDisplay:10.37,2013-03-07 17:05:00,
2013-03-07 12:10:00,50.7,25.4,29.09,North,0,0.0,0.0,37,0.00,,SKC,0.00,WeatherDisplay:10.37,2013-03-07 17:10:00,
2013-03-07 12:15:00,51.3,25.2,29.09,North,0,0.0,0.0,36,0.00,,SKC,0.00,WeatherDisplay:10.37,2013-03-07 17:15:00,
2013-03-07 12:20:00,52.0,25.1,29.09,NE,52,0.0,0.0,35,0.00,,SKC,0.00,WeatherDisplay:10.37,2013-03-07 17:20:00,
2013-03-07 12:25:00,52.3,23.3,29.09,NE,45,0.0,0.0,32,0.00,,SKC,0.00,WeatherDisplay:10.37,2013-03-07 17:25:00,
2013-03-07 12:30:00,54.0,24.0,29.08,NNW,338,0.0,0.0,31,0.00,,SKC,0.00,WeatherDisplay:10.37,2013-03-07 17:30:00,
2013-03-07 12:35:00,52.3,22.6,29.08,North,0,0.0,0.0,31,0.00,,SKC,0.00,WeatherDisplay:10.37,2013-03-07 17:35:00,
2013-03-07 12:40:00,52.7,23.6,29.08,West,270,0.0,0.0,32,0.00,,SKC,0.00,WeatherDisplay:10.37,2013-03-07 17:40:00,
2013-03-07 12:45:00,53.8,23.8,29.08,South,180,0.0,0.0,31,0.00,,SKC,0.00,WeatherDisplay:10.37,2013-03-07 17:45:00,
2013-03-07 12:50:00,53.6,23.7,29.07,NE,45,0.0,0.0,31,0.00,,SKC,0.00,WeatherDisplay:10.37,2013-03-07 17:50:00,
2013-03-07 12:55:00,53.4,23.5,29.07,WNW,292,0.0,0.0,31,0.00,,SKC,0.00,WeatherDisplay:10.37,2013-03-07 17:55:00,
2013-03-07 13:00:00,54.5,22.9,29.07,East,90,0.0,0.0,29,0.00,,SKC,0.00,WeatherDisplay:10.37,2013-03-07 18:00:00,
2013-03-07 13:05:00,53.8,23.0,29.06,NE,45,0.0,0.0,30,0.00,,SKC,0.00,WeatherDisplay:10.37,2013-03-07 18:05:00,
2013-03-07 13:10:00,53.6,23.7,29.06,North,0,0.0,0.0,31,0.00,,SKC,0.00,WeatherDisplay:10.37,2013-03-07 18:10:00,
2013-03-07 13:15:00,54.7,24.6,29.06,NE,45,0.0,0.0,31,0.00,,SKC,0.00,WeatherDisplay:10.37,2013-03-07 18:15:00,
2013-03-07 13:20:00,55.2,26.6,29.05,NE,45,0.0,0.0,33,0.00,,SKC,0.00,WeatherDisplay:10.37,2013-03-07 18:20:00,
2013-03-07 13:25:00,56.8,24.0,29.05,South,180,0.0,0.0,28,0.00,,SKC,0.00,WeatherDisplay:10.37,2013-03-07 18:25:00,
2013-03-07 13:30:00,56.8,24.9,29.05,NW,315,0.0,0.0,29,0.00,,SKC,0.00,WeatherDisplay:10.37,2013-03-07 18:30:00,
2013-03-07 13:35:00,55.2,22.6,29.04,NE,45,0.0,0.0,28,0.00,,SKC,0.00,WeatherDisplay:10.37,2013-03-07 18:35:00,
2013-03-07 13:40:00,54.5,24.4,29.04,North,0,0.0,0.0,31,0.00,,SKC,0.00,WeatherDisplay:10.37,2013-03-07 18:40:00,
2013-03-07 13:45:00,54.5,24.4,29.03,NW,315,0.0,0.0,31,0.00,,SKC,0.00,WeatherDisplay:10.37,2013-03-07 18:45:00,
2013-03-07 13:50:00,55.0,25.7,29.03,East,90,0.0,0.0,32,0.00,,SKC,0.00,WeatherDisplay:10.37,2013-03-07 18:50:00,
2013-03-07 13:56:00,53.6,23.7,29.03,NW,315,0.0,0.0,31,0.00,,SKC,0.00,WeatherDisplay:10.37,2013-03-07 18:56:00,
2013-03-07 14:01:00,53.8,24.6,29.03,SW,225,0.0,0.0,32,0.00,,SKC,0.00,WeatherDisplay:10.37,2013-03-07 19:01:00,
2013-03-07 14:06:00,53.8,24.6,29.02,NE,45,0.0,0.0,32,0.00,,SKC,0.00,WeatherDisplay:10.37,2013-03-07 19:06:00,
2013-03-07 14:11:00,52.7,23.6,29.02,East,90,0.0,0.0,32,0.00,,SKC,0.00,WeatherDisplay:10.37,2013-03-07 19:11:00,
2013-03-07 14:16:00,52.5,24.2,29.03,North,0,0.0,0.0,33,0.00,,SKC,0.00,WeatherDisplay:10.37,2013-03-07 19:16:00,
2013-03-07 14:21:00,52.9,24.5,29.03,NE,45,0.0,0.0,33,0.00,,SKC,0.00,WeatherDisplay:10.37,2013-03-07 19:21:00,
2013-03-07 14:26:00,52.0,23.7,29.03,South,180,0.0,0.0,33,0.00,,SKC,0.00,WeatherDisplay:10.37,2013-03-07 19:26:00,
2013-03-07 14:31:00,52.2,25.3,29.03,NE,45,0.0,0.0,35,0.00,,SKC,0.00,WeatherDisplay:10.37,2013-03-07 19:31:00,
2013-03-07 14:37:00,51.3,24.5,29.03,North,0,0.0,0.0,35,0.00,,SKC,0.00,WeatherDisplay:10.37,2013-03-07 19:37:00,
2013-03-07 14:42:00,50.0,23.4,29.02,North,0,0.0,0.0,35,0.00,,SKC,0.00,WeatherDisplay:10.37,2013-03-07 19:42:00,
2013-03-07 14:47:00,50.2,25.5,29.02,North,0,0.0,0.0,38,0.00,,SKC,0.00,WeatherDisplay:10.37,2013-03-07 19:47:00,
2013-03-07 14:52:00,49.6,23.7,29.02,North,0,0.0,0.0,36,0.00,,SKC,0.00,WeatherDisplay:10.37,2013-03-07 19:52:00,
2013-03-07 14:57:00,49.5,24.2,29.02,NE,45,0.0,0.0,37,0.00,,SKC,0.00,WeatherDisplay:10.37,2013-03-07 19:57:00,
2013-03-07 15:02:00,49.1,25.8,29.02,NE,45,0.0,0.0,40,0.00,,SKC,0.00,WeatherDisplay:10.37,2013-03-07 20:02:00,
2013-03-07 15:07:00,48.9,25.6,29.02,North,0,0.0,0.0,40,0.00,,SKC,0.00,WeatherDisplay:10.37,2013-03-07 20:07:00,
2013-03-07 15:12:00,49.1,26.4,29.02,South,180,0.0,0.0,41,0.00,,SKC,0.00,WeatherDisplay:10.37,2013-03-07 20:12:00,
2013-03-07 15:17:00,49.1,27.0,29.03,NE,45,0.0,0.0,42,0.00,,SKC,0.00,WeatherDisplay:10.37,2013-03-07 20:17:00,
2013-03-07 15:22:00,48.9,26.8,29.02,NW,315,0.0,0.0,42,0.00,,SKC,0.00,WeatherDisplay:10.37,2013-03-07 20:22:00,
2013-03-07 15:27:00,48.9,26.8,29.02,North,0,0.0,0.0,42,0.00,,SKC,0.00,WeatherDisplay:10.37,2013-03-07 20:27:00,
2013-03-07 15:32:00,48.6,25.9,29.02,East,90,0.0,0.0,41,0.00,,SKC,0.00,WeatherDisplay:10.37,2013-03-07 20:32:00,
2013-03-07 15:37:00,48.0,26.0,29.02,NE,45,0.0,0.0,42,0.00,,SKC,0.00,WeatherDisplay:10.37,2013-03-07 20:37:00,
2013-03-07 15:42:00,47.8,25.8,29.02,NE,45,0.0,0.0,42,0.00,,SKC,0.00,WeatherDisplay:10.37,2013-03-07 20:42:00,
2013-03-07 15:47:00,46.9,25.6,29.02,North,0,0.0,0.0,43,0.00,,SKC,0.00,WeatherDisplay:10.37,2013-03-07 20:47:00,
2013-03-07 15:52:00,46.6,25.3,29.03,South,180,0.0,0.0,43,0.00,,SKC,0.00,WeatherDisplay:10.37,2013-03-07 20:52:00,
2013-03-07 15:57:00,46.6,26.4,29.03,WNW,292,0.0,0.0,45,0.00,,SKC,0.00,WeatherDisplay:10.37,2013-03-07 20:57:00,
2013-03-07 16:02:00,46.0,25.9,29.03,NNW,338,0.0,0.0,45,0.00,,SKC,0.00,WeatherDisplay:10.37,2013-03-07 21:02:00,
2013-03-07 16:07:00,46.0,25.9,29.03,SE,135,0.0,0.0,45,0.00,,SKC,0.00,WeatherDisplay:10.37,2013-03-07 21:07:00,
2013-03-07 16:12:00,46.0,25.9,29.04,North,0,0.0,0.0,45,0.00,,SKC,0.00,WeatherDisplay:10.37,2013-03-07 21:12:00,
2013-03-07 16:17:00,45.7,25.0,29.04,NE,45,0.0,0.0,44,0.00,,SKC,0.00,WeatherDisplay:10.37,2013-03-07 21:17:00,
2013-03-07 16:22:00,45.7,25.0,29.04,NE,45,0.0,0.0,44,0.00,,SKC,0.00,WeatherDisplay:10.37,2013-03-07 21:22:00,
2013-03-07 16:28:00,45.9,25.7,29.04,NE,45,0.0,0.0,45,0.00,,SKC,0.00,WeatherDisplay:10.37,2013-03-07 21:28:00,
2013-03-07 16:33:00,45.9,25.7,29.04,NE,45,0.0,0.0,45,0.00,,SKC,0.00,WeatherDisplay:10.37,2013-03-07 21:33:00,
2013-03-07 16:38:00,45.3,24.7,29.05,North,0,0.0,0.0,44,0.00,,SKC,0.00,WeatherDisplay:10.37,2013-03-07 21:38:00,
2013-03-07 16:43:00,45.3,24.7,29.05,North,0,0.0,0.0,44,0.00,,SKC,0.00,WeatherDisplay:10.37,2013-03-07 21:43:00,
2013-03-07 16:48:00,45.3,25.2,29.05,North,0,0.0,0.0,45,0.00,,SKC,0.00,WeatherDisplay:10.37,2013-03-07 21:48:00,
2013-03-07 16:53:00,45.1,24.5,29.06,NE,45,0.0,0.0,44,0.00,,SKC,0.00,WeatherDisplay:10.37,2013-03-07 21:53:00,
2013-03-07 16:58:00,44.8,24.7,29.06,East,90,0.0,0.0,45,0.00,,SKC,0.00,WeatherDisplay:10.37,2013-03-07 21:58:00,
2013-03-07 17:03:00,44.4,24.4,29.06,North,0,0.0,0.0,45,0.00,,SKC,0.00,WeatherDisplay:10.37,2013-03-07 22:03:00,
2013-03-07 17:08:00,44.1,24.1,29.06,North,0,0.0,0.0,45,0.00,,SKC,0.00,WeatherDisplay:10.37,2013-03-07 22:08:00,
2013-03-07 17:13:00,43.7,24.2,29.06,NE,45,0.0,0.0,46,0.00,,SKC,0.00,WeatherDisplay:10.37,2013-03-07 22:13:00,
2013-03-07 17:18:00,43.5,24.6,29.07,NE,45,0.0,0.0,47,0.00,,SKC,0.00,WeatherDisplay:10.37,2013-03-07 22:18:00,
2013-03-07 17:23:00,43.3,23.9,29.07,SW,225,0.0,0.0,46,0.00,,SKC,0.00,WeatherDisplay:10.37,2013-03-07 22:23:00,
2013-03-07 17:28:00,43.2,24.8,29.08,NE,45,0.0,0.0,48,0.00,,SKC,0.00,WeatherDisplay:10.37,2013-03-07 22:28:00,
2013-03-07 17:33:00,43.0,24.6,29.08,North,0,0.0,0.0,48,0.00,,SKC,0.00,WeatherDisplay:10.37,2013-03-07 22:33:00,
2013-03-07 17:38:00,42.8,24.9,29.08,South,180,0.0,0.0,49,0.00,,SKC,0.00,WeatherDisplay:10.37,2013-03-07 22:38:00,
2013-03-07 17:43:00,42.4,24.6,29.08,North,0,0.0,0.0,49,0.00,,SKC,0.00,WeatherDisplay:10.37,2013-03-07 22:43:00,
2013-03-07 17:48:00,42.3,24.4,29.09,North,0,0.0,0.0,49,0.00,,SKC,0.00,WeatherDisplay:10.37,2013-03-07 22:48:00,
2013-03-07 17:53:00,41.7,24.9,29.09,North,0,0.0,0.0,51,0.00,,SKC,0.00,WeatherDisplay:10.37,2013-03-07 22:53:00,
2013-03-07 17:58:00,41.5,25.2,29.09,North,0,0.0,0.0,52,0.00,,SKC,0.00,WeatherDisplay:10.37,2013-03-07 22:58:00,
2013-03-07 18:03:00,41.2,25.3,29.09,NE,45,0.0,0.0,53,0.00,,SKC,0.00,WeatherDisplay:10.37,2013-03-07 23:03:00,
2013-03-07 18:08:00,40.8,25.0,29.10,NE,45,0.0,0.0,53,0.00,,SKC,0.00,WeatherDisplay:10.37,2013-03-07 23:08:00,
2013-03-07 18:14:00,40.6,24.8,29.10,North,0,0.0,0.0,53,0.00,,SKC,0.00,WeatherDisplay:10.37,2013-03-07 23:14:00,
2013-03-07 18:19:00,40.5,24.7,29.10,NE,45,0.0,0.0,53,0.00,,SKC,0.00,WeatherDisplay:10.37,2013-03-07 23:19:00,
2013-03-07 18:24:00,40.1,24.8,29.10,SW,225,0.0,0.0,54,0.00,,SKC,0.00,WeatherDisplay:10.37,2013-03-07 23:24:00,
2013-03-07 18:29:00,39.7,24.9,29.10,NE,45,0.0,0.0,55,0.00,,SKC,0.00,WeatherDisplay:10.37,2013-03-07 23:29:00,
2013-03-07 18:34:00,39.4,25.0,29.11,North,0,0.0,0.0,56,0.00,,SKC,0.00,WeatherDisplay:10.37,2013-03-07 23:34:00,
2013-03-07 18:39:00,39.0,24.6,29.11,SE,135,0.0,0.0,56,0.00,,SKC,0.00,WeatherDisplay:10.37,2013-03-07 23:39:00,
2013-03-07 18:44:00,38.7,24.3,29.11,North,0,0.0,0.0,56,0.00,,SKC,0.00,WeatherDisplay:10.37,2013-03-07 23:44:00,
2013-03-07 18:49:00,38.1,24.6,29.12,South,180,0.0,0.0,58,0.00,,SKC,0.00,WeatherDisplay:10.37,2013-03-07 23:49:00,
2013-03-07 18:54:00,37.9,24.9,29.12,South,180,0.0,0.0,59,0.00,,SKC,0.00,WeatherDisplay:10.37,2013-03-07 23:54:00,
2013-03-07 18:59:00,37.6,24.5,29.12,South,180,0.0,0.0,59,0.00,,SKC,0.00,WeatherDisplay:10.37,2013-03-07 23:59:00,
2013-03-07 19:04:00,37.6,24.5,29.13,South,180,0.0,0.0,59,0.00,,SKC,0.00,WeatherDisplay:10.37,2013-03-08 00:04:00,
2013-03-07 19:09:00,37.0,24.4,29.13,North,0,0.0,0.0,60,0.00,,SKC,0.00,WeatherDisplay:10.37,2013-03-08 00:09:00,
2013-03-07 19:14:00,36.7,22.9,29.13,North,0,0.0,0.0,57,0.00,,SKC,0.00,WeatherDisplay:10.37,2013-03-08 00:14:00,
2013-03-07 19:19:00,36.9,24.7,29.13,North,0,0.0,0.0,61,0.00,,SKC,0.00,WeatherDisplay:10.37,2013-03-08 00:19:00,
2013-03-07 19:25:00,36.9,24.7,29.13,North,0,0.0,0.0,61,0.00,,SKC,0.00,WeatherDisplay:10.37,2013-03-08 00:25:00,
2013-03-07 19:30:00,36.9,24.7,29.13,South,180,0.0,0.0,61,0.00,,SKC,0.00,WeatherDisplay:10.37,2013-03-08 00:30:00,
2013-03-07 19:35:00,36.7,22.9,29.14,NE,45,1.1,0.0,57,0.00,,SKC,0.00,WeatherDisplay:10.37,2013-03-08 00:35:00,
2013-03-07 19:40:00,36.5,23.1,29.15,North,0,1.1,0.0,58,0.00,,SKC,0.00,WeatherDisplay:10.37,2013-03-08 00:40:00,
2013-03-07 19:45:00,36.1,22.8,29.15,North,0,0.0,0.0,58,0.00,,SKC,0.00,WeatherDisplay:10.37,2013-03-08 00:45:00,
2013-03-07 19:50:00,36.0,22.6,29.15,North,0,0.0,0.0,58,0.00,,SKC,0.00,WeatherDisplay:10.37,2013-03-08 00:50:00,
2013-03-07 19:55:00,35.8,22.8,29.16,North,0,0.0,0.0,59,0.00,,SKC,0.00,WeatherDisplay:10.37,2013-03-08 00:55:00,
2013-03-07 20:00:00,35.6,22.7,29.16,North,0,0.0,0.0,59,0.00,,SKC,0.00,WeatherDisplay:10.37,2013-03-08 01:00:00,
2013-03-07 20:05:00,35.4,22.5,29.16,NW,315,1.1,0.0,59,0.00,,SKC,0.00,WeatherDisplay:10.37,2013-03-08 01:05:00,
2013-03-07 20:10:00,35.1,22.6,29.16,NW,315,1.1,0.0,60,0.00,,SKC,0.00,WeatherDisplay:10.37,2013-03-08 01:10:00,
2013-03-07 20:15:00,34.9,22.8,29.16,North,0,0.0,0.0,61,0.00,,SKC,0.00,WeatherDisplay:10.37,2013-03-08 01:15:00,
2013-03-07 20:20:00,34.9,22.8,29.16,NE,45,0.0,0.0,61,0.00,,SKC,0.00,WeatherDisplay:10.37,2013-03-08 01:20:00,
2013-03-07 20:25:00,34.9,22.8,29.16,East,90,0.0,0.0,61,0.00,,SKC,0.00,WeatherDisplay:10.37,2013-03-08 01:25:00,
2013-03-07 20:30:00,34.5,22.4,29.17,NW,315,0.0,0.0,61,0.00,,SKC,0.00,WeatherDisplay:10.37,2013-03-08 01:30:00,
2013-03-07 20:35:00,34.3,22.3,29.17,North,0,1.1,0.0,61,0.00,,SKC,0.00,WeatherDisplay:10.37,2013-03-08 01:35:00,
2013-03-07 20:40:00,34.3,22.7,29.17,North,0,0.0,0.0,62,0.00,,SKC,0.00,WeatherDisplay:10.37,2013-03-08 01:40:00,
2013-03-07 20:45:00,34.3,22.7,29.18,North,0,0.0,0.0,62,0.00,,SKC,0.00,WeatherDisplay:10.37,2013-03-08 01:45:00,
2013-03-07 20:50:00,34.2,22.1,29.17,NE,45,0.0,0.0,61,0.00,,SKC,0.00,WeatherDisplay:10.37,2013-03-08 01:50:00,
2013-03-07 20:55:00,34.0,22.3,29.17,North,0,0.0,0.0,62,0.00,,SKC,0.00,WeatherDisplay:10.37,2013-03-08 01:55:00,
2013-03-07 21:00:00,33.8,22.5,29.17,NW,315,1.1,0.0,63,0.00,,SKC,0.00,WeatherDisplay:10.37,2013-03-08 02:00:00,
2013-03-07 21:05:00,33.8,22.5,29.17,NW,315,1.1,0.0,63,0.00,,SKC,0.00,WeatherDisplay:10.37,2013-03-08 02:05:00,
2013-03-07 21:10:00,33.1,22.6,29.17,South,180,0.0,0.0,65,0.00,,SKC,0.00,WeatherDisplay:10.37,2013-03-08 02:10:00,
2013-03-07 21:15:00,32.7,22.2,29.18,NW,315,0.0,0.0,65,0.00,,SKC,0.00,WeatherDisplay:10.37,2013-03-08 02:15:00,
2013-03-07 21:20:00,32.5,22.4,29.18,North,0,0.0,0.0,66,0.00,,SKC,0.00,WeatherDisplay:10.37,2013-03-08 02:20:00,
2013-03-07 21:26:00,32.0,21.9,29.18,SE,135,0.0,0.0,66,0.00,,SKC,0.00,WeatherDisplay:10.37,2013-03-08 02:26:00,
2013-03-07 21:31:00,31.6,21.6,29.18,NW,315,1.1,0.0,66,0.00,,SKC,0.00,WeatherDisplay:10.37,2013-03-08 02:31:00,
2013-03-07 21:36:00,31.3,21.9,29.17,South,180,0.0,0.0,68,0.00,,SKC,0.00,WeatherDisplay:10.37,2013-03-08 02:36:00,
2013-03-07 21:41:00,30.9,21.6,29.18,NW,315,0.0,0.0,68,0.00,,SKC,0.00,WeatherDisplay:10.37,2013-03-08 02:41:00,
2013-03-07 21:46:00,30.9,21.9,29.18,NW,315,1.1,0.0,69,0.00,,SKC,0.00,WeatherDisplay:10.37,2013-03-08 02:46:00,
2013-03-07 21:51:00,30.7,22.1,29.17,West,270,2.3,0.0,70,0.00,,SKC,0.00,WeatherDisplay:10.37,2013-03-08 02:51:00,
2013-03-07 21:56:00,30.6,21.9,29.18,NW,315,0.0,0.0,70,0.00,,SKC,0.00,WeatherDisplay:10.37,2013-03-08 02:56:00,
2013-03-07 22:01:00,30.2,22.3,29.18,SW,225,1.1,0.0,72,0.00,,SKC,0.00,WeatherDisplay:10.37,2013-03-08 03:01:00,
2013-03-07 22:07:00,29.8,22.2,29.18,NW,315,1.1,0.0,73,0.00,,SKC,0.00,WeatherDisplay:10.37,2013-03-08 03:07:00,
2013-03-07 22:12:00,29.5,22.2,29.18,South,180,0.0,0.0,74,0.00,,SKC,0.00,WeatherDisplay:10.37,2013-03-08 03:12:00,
2013-03-07 22:17:00,29.1,21.9,29.18,NW,315,0.0,0.0,74,0.00,,SKC,0.00,WeatherDisplay:10.37,2013-03-08 03:17:00,
2013-03-07 22:22:00,28.9,22.0,29.18,NW,315,1.1,0.0,75,0.00,,SKC,0.00,WeatherDisplay:10.37,2013-03-08 03:22:00,
2013-03-07 22:27:00,29.1,22.2,29.18,North,0,1.1,0.0,75,0.00,,SKC,0.00,WeatherDisplay:10.37,2013-03-08 03:27:00,
2013-03-07 22:32:00,29.1,22.5,29.18,South,180,1.1,0.0,76,0.00,,SKC,0.00,WeatherDisplay:10.37,2013-03-08 03:32:00,
2013-03-07 22:37:00,28.9,22.3,29.18,South,180,1.1,0.0,76,0.00,,SKC,0.00,WeatherDisplay:10.37,2013-03-08 03:37:00,
2013-03-07 22:42:00,28.8,22.1,29.18,NW,315,1.1,0.0,76,0.00,,SKC,0.00,WeatherDisplay:10.37,2013-03-08 03:42:00,
2013-03-07 22:47:00,28.6,22.0,29.18,South,180,0.0,0.0,76,0.00,,SKC,0.00,WeatherDisplay:10.37,2013-03-08 03:47:00,
2013-03-07 22:52:00,28.4,22.1,29.18,South,180,0.0,0.0,77,0.00,,SKC,0.00,WeatherDisplay:10.37,2013-03-08 03:52:00,
2013-03-07 22:57:00,28.2,21.9,29.18,North,0,1.1,0.0,77,0.00,,SKC,0.00,WeatherDisplay:10.37,2013-03-08 03:57:00,
2013-03-07 23:02:00,28.2,21.9,29.19,North,0,0.0,0.0,77,0.00,,SKC,0.00,WeatherDisplay:10.37,2013-03-08 04:02:00,
2013-03-07 23:07:00,28.0,21.8,29.19,North,0,1.1,0.0,77,0.00,,SKC,0.00,WeatherDisplay:10.37,2013-03-08 04:07:00,
2013-03-07 23:12:00,28.0,21.8,29.19,NW,315,1.1,0.0,77,0.00,,SKC,0.00,WeatherDisplay:10.37,2013-03-08 04:12:00,
2013-03-07 23:18:00,27.9,21.6,29.19,NW,315,1.1,0.0,77,0.00,,SKC,0.00,WeatherDisplay:10.37,2013-03-08 04:18:00,
2013-03-07 23:23:00,27.7,20.2,29.19,NW,315,0.0,0.0,73,0.00,,SKC,0.00,WeatherDisplay:10.37,2013-03-08 04:23:00,
2013-03-07 23:28:00,27.5,20.0,29.20,NW,315,1.1,0.0,73,0.00,,SKC,0.00,WeatherDisplay:10.37,2013-03-08 04:28:00,
2013-03-07 23:33:00,27.5,20.3,29.20,North,0,1.1,0.0,74,0.00,,SKC,0.00,WeatherDisplay:10.37,2013-03-08 04:33:00,
2013-03-07 23:38:00,27.3,20.1,29.20,North,0,1.1,0.0,74,0.00,,SKC,0.00,WeatherDisplay:10.37,2013-03-08 04:38:00,
2013-03-07 23:43:00,27.3,20.1,29.20,NW,315,0.0,0.0,74,0.00,,SKC,0.00,WeatherDisplay:10.37,2013-03-08 04:43:00,
2013-03-07 23:48:00,27.1,19.9,29.19,NW,315,1.1,0.0,74,0.00,,SKC,0.00,WeatherDisplay:10.37,2013-03-08 04:48:00,
2013-03-07 23:53:00,27.0,19.8,29.20,North,0,1.1,0.0,74,0.00,,SKC,0.00,WeatherDisplay:10.37,2013-03-08 04:53:00,
2013-03-07 23:58:00,27.1,20.3,29.20,North,0,1.1,0.0,75,0.00,,SKC,0.00,WeatherDisplay:10.37,2013-03-08 04:58:00,